createdAt,value
2023-02-18T00:02:23.676Z,6.40
2023-02-18T00:05:17.880Z,6.40
2023-02-18T00:08:07.255Z,6.50
2023-02-18T00:10:57.286Z,6.60
2023-02-18T00:13:52.389Z,6.60
2023-02-18T00:16:42.129Z,6.60
2023-02-18T00:19:31.810Z,6.60
2023-02-18T00:22:21.070Z,6.60
2023-02-18T00:25:10.762Z,6.40
2023-02-18T00:28:00.015Z,6.40
2023-02-18T00:30:50.776Z,6.40
2023-02-18T00:33:40.316Z,6.50
2023-02-18T00:36:30.537Z,6.50
2023-02-18T00:39:21.738Z,6.50
2023-02-18T00:42:11.263Z,6.50
2023-02-18T00:45:00.638Z,6.60
2023-02-18T00:47:51.704Z,6.70
2023-02-18T00:50:40.995Z,6.70
2023-02-18T00:53:32.247Z,6.80
2023-02-18T00:56:22.171Z,6.80
2023-02-18T00:59:11.689Z,6.70
2023-02-18T01:02:01.160Z,6.70
2023-02-18T01:04:52.420Z,6.70
2023-02-18T01:07:41.806Z,6.70
2023-02-18T01:10:32.630Z,6.60
2023-02-18T01:13:22.036Z,6.60
2023-02-18T01:16:11.986Z,6.60
2023-02-18T01:19:01.720Z,6.70
2023-02-18T01:21:52.458Z,6.70
2023-02-18T01:24:41.761Z,6.70
2023-02-18T01:27:31.136Z,6.60
2023-02-18T01:30:24.504Z,6.60
2023-02-18T01:33:13.937Z,6.50
2023-02-18T01:36:03.529Z,6.50
2023-02-18T01:38:54.839Z,6.40
2023-02-18T01:41:44.522Z,6.40
2023-02-18T01:44:36.429Z,6.40
2023-02-18T01:47:51.279Z,6.30
2023-02-18T01:50:57.934Z,6.30
2023-02-18T01:53:54.670Z,6.20
2023-02-18T01:56:50.162Z,6.30
2023-02-18T01:59:43.824Z,6.20
2023-02-18T02:02:35.358Z,6.20
2023-02-18T02:05:26.732Z,6.20
2023-02-18T02:08:16.116Z,6.20
2023-02-18T02:11:12.368Z,6.30
2023-02-18T02:14:02.096Z,6.30
2023-02-18T02:17:02.156Z,6.30
2023-02-18T02:22:43.500Z,6.20
2023-02-18T02:25:45.201Z,6.20
2023-02-18T02:34:12.428Z,6.20
2023-02-18T02:39:44.736Z,6.30
2023-02-18T02:42:44.141Z,6.30
2023-02-18T02:45:44.730Z,6.30
2023-02-18T02:48:39.977Z,6.30
2023-02-18T02:51:34.107Z,6.30
2023-02-18T02:54:29.650Z,6.30
2023-02-18T02:57:46.613Z,6.30
2023-02-18T03:00:46.467Z,6.30
2023-02-18T03:03:53.495Z,6.30
2023-02-18T03:07:11.738Z,6.30
2023-02-18T03:10:16.699Z,6.30
2023-02-18T03:13:17.391Z,6.30
2023-02-18T03:16:16.293Z,6.30
2023-02-18T03:19:12.830Z,6.40
2023-02-18T03:22:07.274Z,6.30
2023-02-18T03:24:59.845Z,6.30
2023-02-18T03:27:54.040Z,6.30
2023-02-18T03:30:48.262Z,6.30
2023-02-18T03:33:41.823Z,6.30
2023-02-18T03:36:32.955Z,6.30
2023-02-18T03:39:25.439Z,6.20
2023-02-18T03:42:14.768Z,6.30
2023-02-18T03:45:04.491Z,6.20
2023-02-18T03:47:55.887Z,6.30
2023-02-18T03:50:45.287Z,6.20
2023-02-18T03:53:37.825Z,6.30
2023-02-18T03:56:27.517Z,6.40
2023-02-18T03:59:17.058Z,6.30
2023-02-18T04:02:06.337Z,6.20
2023-02-18T04:04:57.788Z,6.30
2023-02-18T04:07:46.999Z,6.20
2023-02-18T04:10:36.934Z,6.20
2023-02-18T04:13:26.494Z,6.20
2023-02-18T04:16:16.609Z,6.20
2023-02-18T04:19:05.961Z,6.20
2023-02-18T04:21:57.228Z,6.20
2023-02-18T04:24:46.488Z,6.20
2023-02-18T04:27:40.370Z,6.20
2023-02-18T04:30:29.819Z,6.30
2023-02-18T04:33:19.722Z,6.20
2023-02-18T04:36:09.979Z,6.20
2023-02-18T04:39:02.589Z,6.10
2023-02-18T04:41:51.817Z,6.10
2023-02-18T04:44:47.007Z,6.10
2023-02-18T04:47:36.573Z,6.00
2023-02-18T04:50:26.690Z,6.00
2023-02-18T04:53:15.928Z,6.00
2023-02-18T04:56:07.881Z,5.90
2023-02-18T04:58:57.314Z,5.80
2023-02-18T05:01:46.889Z,5.70
2023-02-18T05:04:36.199Z,5.60
2023-02-18T05:07:25.797Z,5.40
2023-02-18T05:10:18.580Z,5.40
2023-02-18T05:13:09.805Z,5.40
2023-02-18T05:15:59.026Z,5.30
2023-02-18T05:18:48.646Z,5.30
2023-02-18T05:21:37.894Z,5.40
2023-02-18T05:24:27.681Z,5.50
2023-02-18T05:27:16.898Z,5.60
2023-02-18T05:30:09.659Z,5.70
2023-02-18T05:32:58.961Z,5.80
2023-02-18T05:35:48.805Z,5.90
2023-02-18T05:38:38.151Z,5.80
2023-02-18T05:41:27.930Z,5.80
2023-02-18T05:44:32.749Z,5.80
2023-02-18T05:47:25.944Z,5.80
2023-02-18T05:50:15.261Z,5.90
2023-02-18T05:53:05.097Z,6.00
2023-02-18T05:55:54.345Z,5.90
2023-02-18T05:58:44.146Z,6.00
2023-02-18T06:01:33.394Z,6.00
2023-02-18T06:04:25.115Z,6.00
2023-02-18T06:07:14.429Z,6.00
2023-02-18T06:10:04.253Z,6.10
2023-02-18T06:12:53.543Z,6.10
2023-02-18T06:15:43.460Z,6.00
2023-02-18T06:18:32.778Z,6.10
2023-02-18T06:21:24.293Z,6.00
2023-02-18T06:24:13.575Z,6.10
2023-02-18T06:27:03.872Z,6.10
2023-02-18T06:29:53.132Z,6.10
2023-02-18T06:32:42.974Z,6.10
2023-02-18T06:35:32.663Z,6.10
2023-02-18T11:56:21.819Z,8.10
2023-02-18T11:59:13.862Z,8.30
2023-02-18T13:23:47.925Z,9.10
2023-02-18T13:26:38.514Z,8.70
2023-02-18T13:29:41.447Z,8.90
2023-02-18T13:32:39.556Z,8.90
2023-02-18T13:35:43.073Z,8.50
2023-02-18T13:39:05.119Z,8.20
2023-02-18T13:42:14.146Z,8.30
2023-02-18T13:45:39.152Z,8.20
2023-02-18T13:48:30.462Z,8.20
2023-02-18T13:51:38.162Z,8.00
2023-02-18T13:54:32.903Z,7.80
2023-02-18T13:57:34.633Z,7.70
2023-02-18T14:00:26.362Z,7.60
2023-02-18T14:03:40.107Z,7.60
2023-02-18T14:06:32.624Z,7.50
2023-02-18T14:09:50.581Z,7.50
2023-02-18T14:12:51.636Z,7.70
2023-02-18T14:16:02.465Z,7.70
2023-02-18T14:19:08.586Z,7.70
2023-02-18T14:22:28.330Z,8.00
2023-02-18T14:25:47.281Z,8.00
2023-02-18T14:28:53.224Z,8.00
2023-02-18T14:32:12.420Z,7.90
2023-02-18T14:35:29.023Z,7.80
2023-02-18T14:38:45.393Z,7.30
2023-02-18T14:41:51.618Z,7.30
2023-02-18T14:45:06.029Z,7.20
2023-02-18T14:48:28.122Z,7.00
2023-02-18T14:51:18.590Z,6.80
2023-02-18T14:54:21.533Z,6.70
2023-02-18T14:57:27.089Z,6.80
2023-02-18T15:00:27.415Z,6.70
2023-02-18T15:03:26.035Z,6.60
2023-02-18T15:06:27.128Z,6.60
2023-02-18T15:09:28.409Z,6.60
2023-02-18T15:12:25.531Z,6.50
2023-02-18T15:15:25.855Z,6.50
2023-02-18T15:18:31.247Z,6.50
2023-02-18T15:21:33.103Z,6.40
2023-02-18T15:24:34.061Z,6.30
2023-02-18T15:27:27.127Z,6.10
2023-02-18T15:30:32.158Z,6.10
2023-02-18T15:33:35.494Z,6.00
2023-02-18T15:36:41.452Z,5.90
2023-02-18T15:39:39.069Z,5.90
2023-02-18T15:42:33.039Z,5.90
2023-02-18T15:45:32.115Z,5.80
2023-02-18T15:48:39.226Z,5.80
2023-02-18T15:51:32.275Z,5.80
2023-02-18T15:54:32.490Z,5.90
2023-02-18T15:57:33.566Z,6.00
2023-02-18T16:00:32.176Z,6.00
2023-02-18T16:03:31.094Z,5.90
2023-02-18T16:06:25.315Z,5.80
2023-02-18T16:09:25.141Z,5.80
2023-02-18T16:12:32.568Z,5.60
2023-02-18T16:15:28.581Z,5.50
2023-02-18T16:18:35.275Z,5.40
2023-02-18T16:21:41.567Z,5.40
2023-02-18T16:24:40.370Z,5.30
2023-02-18T16:27:45.257Z,5.30
2023-02-18T16:30:42.301Z,5.40
2023-02-18T16:33:39.208Z,5.40
2023-02-18T16:36:35.152Z,5.30
2023-02-18T16:39:25.975Z,5.30
2023-02-18T16:42:23.592Z,5.20
2023-02-18T16:45:21.667Z,5.10
2023-02-18T16:48:24.090Z,4.90
2023-02-18T16:51:24.078Z,4.80
2023-02-18T16:54:20.035Z,4.80
2023-02-18T16:57:17.144Z,4.70
2023-02-18T17:00:08.168Z,4.60
2023-02-18T17:03:08.096Z,4.60
2023-02-18T17:06:06.292Z,4.70
2023-02-18T17:08:59.728Z,4.60
2023-02-18T17:11:59.169Z,4.60
2023-02-18T17:14:49.783Z,4.60
2023-02-18T17:17:46.088Z,4.60
2023-02-18T17:20:36.014Z,4.70
2023-02-18T17:23:35.292Z,4.60
2023-02-18T17:26:35.104Z,4.70
2023-02-18T17:29:28.467Z,4.80
2023-02-18T17:32:25.504Z,5.10
2023-02-18T17:35:24.892Z,5.20
2023-02-18T17:38:22.541Z,5.30
2023-02-18T17:41:21.233Z,5.40
2023-02-18T17:44:24.534Z,5.30
2023-02-18T17:47:21.885Z,5.20
2023-02-18T17:50:12.836Z,5.20
2023-02-18T17:53:10.244Z,5.20
2023-02-18T17:56:07.664Z,5.20
2023-02-18T17:59:00.047Z,5.30
2023-02-18T18:01:57.494Z,5.40
2023-02-18T18:04:54.578Z,5.50
2023-02-18T18:07:44.906Z,5.40
2023-02-18T18:10:43.431Z,5.40
2023-02-18T18:13:35.015Z,5.30
2023-02-18T18:16:35.421Z,5.30
2023-02-18T18:19:27.511Z,5.20
2023-02-18T18:22:25.620Z,5.30
2023-02-18T18:25:31.485Z,5.30
2023-02-18T18:28:30.912Z,5.40
2023-02-18T18:31:33.524Z,5.30
2023-02-18T18:34:33.987Z,5.10
2023-02-18T18:37:34.088Z,5.10
2023-02-18T18:40:33.170Z,5.00
2023-02-18T18:43:37.029Z,4.90
2023-02-18T18:46:34.656Z,4.80
2023-02-18T18:49:32.872Z,4.60
2023-02-18T18:52:30.737Z,4.50
2023-02-18T18:55:30.468Z,4.40
2023-02-18T18:58:32.715Z,4.50
2023-02-18T19:01:34.607Z,4.40
2023-02-18T19:04:27.621Z,4.40
2023-02-18T19:07:25.671Z,4.40
2023-02-18T19:10:23.557Z,4.40
2023-02-18T19:13:17.522Z,4.40
2023-02-18T19:16:21.740Z,4.50
2023-02-18T19:19:13.216Z,4.40
2023-02-18T19:22:13.728Z,4.30
2023-02-18T19:25:11.659Z,4.30
2023-02-18T19:28:03.704Z,4.40
2023-02-18T19:31:01.273Z,4.30
2023-02-18T19:33:57.763Z,4.30
2023-02-18T19:36:55.753Z,4.30
2023-02-18T19:39:54.580Z,4.30
2023-02-18T19:42:45.942Z,4.40
2023-02-18T19:45:45.815Z,4.50
2023-02-18T19:48:42.258Z,4.40
2023-02-18T19:51:40.240Z,4.30
2023-02-18T19:54:38.712Z,4.20
2023-02-18T19:57:37.694Z,4.40
2023-02-18T20:00:35.626Z,4.60
2023-02-18T20:03:32.672Z,4.70
2023-02-18T20:06:25.490Z,4.60
2023-02-18T20:09:22.547Z,4.50
2023-02-18T20:12:13.194Z,4.50
2023-02-18T20:15:13.211Z,4.50
2023-02-18T20:18:12.304Z,4.50
2023-02-18T20:21:09.961Z,4.40
2023-02-18T20:24:07.670Z,4.30
2023-02-18T20:27:08.393Z,4.30
2023-02-18T20:30:01.822Z,4.50
2023-02-18T20:33:05.044Z,4.60
2023-02-18T20:36:08.737Z,4.60
2023-02-18T20:39:16.298Z,4.60
2023-02-18T20:42:16.886Z,4.70
2023-02-18T20:45:15.772Z,4.70
2023-02-18T20:48:16.310Z,4.80
2023-02-18T20:51:14.700Z,4.70
2023-02-18T20:54:09.576Z,4.70
2023-02-18T20:57:07.870Z,4.70
2023-02-18T21:00:00.736Z,4.60
2023-02-18T21:02:57.670Z,4.50
2023-02-18T21:06:04.778Z,4.30
2023-02-18T21:09:05.070Z,4.20
2023-02-18T21:12:03.292Z,3.90
2023-02-18T21:14:53.614Z,3.80
2023-02-18T21:17:51.716Z,3.70
2023-02-18T21:20:42.588Z,3.60
2023-02-18T21:23:41.957Z,3.50
2023-02-18T21:26:38.270Z,3.50
2023-02-18T21:29:35.236Z,3.40
2023-02-18T21:32:34.336Z,3.40
2023-02-18T21:35:38.731Z,3.30
2023-02-18T21:38:35.678Z,3.20
2023-02-18T21:41:35.479Z,3.20
2023-02-18T21:44:41.857Z,3.20
2023-02-18T21:47:39.656Z,3.10
2023-02-18T21:50:29.686Z,3.10
2023-02-18T21:53:26.706Z,3.00
2023-02-18T21:56:22.285Z,3.00
2023-02-18T21:59:20.695Z,2.90
2023-02-18T22:02:23.324Z,2.80
2023-02-18T22:05:19.293Z,2.90
2023-02-18T22:08:08.948Z,2.80
2023-02-18T22:11:05.368Z,2.70
2023-02-18T22:13:54.825Z,2.80
2023-02-18T22:16:52.363Z,2.80
2023-02-18T22:19:41.758Z,2.70
2023-02-18T22:22:37.354Z,2.70
2023-02-18T22:25:33.428Z,2.70
2023-02-18T22:28:22.649Z,2.70
2023-02-18T22:31:20.346Z,2.70
2023-02-18T22:34:18.693Z,2.80
2023-02-18T22:37:14.356Z,2.80
2023-02-18T22:40:10.309Z,2.90
2023-02-18T22:43:06.347Z,2.80
2023-02-18T22:46:02.315Z,2.80
2023-02-18T22:48:51.826Z,3.00
2023-02-18T22:51:50.320Z,3.20
2023-02-18T22:54:46.299Z,3.40
2023-02-18T22:57:45.273Z,3.60
2023-02-18T23:00:41.306Z,3.70
2023-02-18T23:03:37.260Z,3.80
2023-02-18T23:06:33.391Z,3.70
2023-02-18T23:09:33.412Z,3.70
2023-02-18T23:12:23.360Z,3.70
2023-02-18T23:15:25.276Z,3.90
2023-02-18T23:18:21.291Z,4.00
2023-02-18T23:21:28.300Z,4.10
2023-02-18T23:24:24.315Z,4.20
2023-02-18T23:27:23.363Z,4.20
2023-02-18T23:30:13.663Z,4.20
2023-02-18T23:33:09.333Z,4.20
2023-02-18T23:36:12.363Z,4.10
2023-02-18T23:39:03.252Z,4.10
2023-02-18T23:41:59.369Z,4.20
2023-02-18T23:44:53.563Z,4.20
2023-02-18T23:47:49.341Z,4.30
2023-02-18T23:50:38.752Z,4.30
2023-02-18T23:53:34.397Z,4.20
2023-02-18T23:56:31.445Z,4.10
2023-02-18T23:59:27.374Z,3.80
